sensor_id;sensor_type;location;lat;lon;timestamp;P1;durP1;ratioP1;P2;durP2;ratioP2
48215;SDS011;34005;48.844;10.098;2023-03-01T00:01:39;20.75;;;13.88;;
48215;SDS011;34005;48.844;10.098;2023-03-01T00:04:07;20.08;;;13.60;;
48215;SDS011;34005;48.844;10.098;2023-03-01T00:06:34;21.95;;;14.93;;
48215;SDS011;34005;48.844;10.098;2023-03-01T00:09:03;22.17;;;13.35;;
48215;SDS011;34005;48.844;10.098;2023-03-01T00:11:31;21.85;;;12.95;;
48215;SDS011;34005;48.844;10.098;2023-03-01T00:14:00;20.02;;;12.75;;
48215;SDS011;34005;48.844;10.098;2023-03-01T00:16:31;21.35;;;12.75;;
48215;SDS011;34005;48.844;10.098;2023-03-01T00:19:00;22.25;;;13.13;;
48215;SDS011;34005;48.844;10.098;2023-03-01T00:21:28;24.00;;;14.38;;
48215;SDS011;34005;48.844;10.098;2023-03-01T00:23:56;22.17;;;13.65;;
48215;SDS011;34005;48.844;10.098;2023-03-01T00:26:25;21.35;;;14.02;;
48215;SDS011;34005;48.844;10.098;2023-03-01T00:28:54;20.90;;;13.65;;
48215;SDS011;34005;48.844;10.098;2023-03-01T00:31:24;20.67;;;13.60;;
48215;SDS011;34005;48.844;10.098;2023-03-01T00:33:53;21.00;;;14.35;;
48215;SDS011;34005;48.844;10.098;2023-03-01T00:36:23;23.70;;;14.88;;
48215;SDS011;34005;48.844;10.098;2023-03-01T00:38:52;22.48;;;14.48;;
48215;SDS011;34005;48.844;10.098;2023-03-01T00:41:20;21.80;;;13.80;;
48215;SDS011;34005;48.844;10.098;2023-03-01T00:43:50;22.75;;;13.48;;
48215;SDS011;34005;48.844;10.098;2023-03-01T00:46:19;23.77;;;13.43;;
48215;SDS011;34005;48.844;10.098;2023-03-01T00:48:50;23.67;;;14.15;;
48215;SDS011;34005;48.844;10.098;2023-03-01T00:51:18;21.52;;;13.82;;
48215;SDS011;34005;48.844;10.098;2023-03-01T00:53:49;22.70;;;13.57;;
48215;SDS011;34005;48.844;10.098;2023-03-01T00:56:18;18.73;;;13.13;;
48215;SDS011;34005;48.844;10.098;2023-03-01T00:58:46;21.42;;;13.93;;
48215;SDS011;34005;48.844;10.098;2023-03-01T01:01:16;23.20;;;13.82;;
48215;SDS011;34005;48.844;10.098;2023-03-01T01:03:46;23.75;;;13.32;;
48215;SDS011;34005;48.844;10.098;2023-03-01T01:06:15;24.10;;;14.93;;
48215;SDS011;34005;48.844;10.098;2023-03-01T01:08:43;24.88;;;14.23;;
48215;SDS011;34005;48.844;10.098;2023-03-01T01:11:11;23.55;;;16.08;;
48215;SDS011;34005;48.844;10.098;2023-03-01T01:13:39;19.40;;;12.93;;
48215;SDS011;34005;48.844;10.098;2023-03-01T01:16:08;26.02;;;14.95;;
48215;SDS011;34005;48.844;10.098;2023-03-01T01:18:37;24.75;;;14.75;;
48215;SDS011;34005;48.844;10.098;2023-03-01T01:21:05;26.33;;;15.60;;
48215;SDS011;34005;48.844;10.098;2023-03-01T01:23:34;23.17;;;14.80;;
48215;SDS011;34005;48.844;10.098;2023-03-01T01:26:06;22.33;;;14.20;;
48215;SDS011;34005;48.844;10.098;2023-03-01T01:28:34;26.08;;;15.05;;
48215;SDS011;34005;48.844;10.098;2023-03-01T01:31:02;22.42;;;13.70;;
48215;SDS011;34005;48.844;10.098;2023-03-01T01:33:30;23.73;;;14.60;;
48215;SDS011;34005;48.844;10.098;2023-03-01T01:35:59;21.92;;;14.35;;
48215;SDS011;34005;48.844;10.098;2023-03-01T01:38:27;27.55;;;15.93;;
48215;SDS011;34005;48.844;10.098;2023-03-01T01:40:54;19.33;;;13.48;;
48215;SDS011;34005;48.844;10.098;2023-03-01T01:43:23;25.98;;;15.43;;
48215;SDS011;34005;48.844;10.098;2023-03-01T01:45:52;26.10;;;15.00;;
48215;SDS011;34005;48.844;10.098;2023-03-01T01:48:24;23.23;;;13.88;;
48215;SDS011;34005;48.844;10.098;2023-03-01T01:51:09;22.30;;;14.23;;
48215;SDS011;34005;48.844;10.098;2023-03-01T01:53:40;21.15;;;14.35;;
48215;SDS011;34005;48.844;10.098;2023-03-01T01:56:13;22.35;;;14.23;;
48215;SDS011;34005;48.844;10.098;2023-03-01T01:58:44;23.60;;;14.75;;
48215;SDS011;34005;48.844;10.098;2023-03-01T02:01:13;25.73;;;15.32;;
48215;SDS011;34005;48.844;10.098;2023-03-01T02:03:42;20.30;;;14.80;;
48215;SDS011;34005;48.844;10.098;2023-03-01T02:06:14;20.92;;;14.48;;
48215;SDS011;34005;48.844;10.098;2023-03-01T02:08:47;26.13;;;14.93;;
48215;SDS011;34005;48.844;10.098;2023-03-01T02:11:16;22.80;;;14.32;;
48215;SDS011;34005;48.844;10.098;2023-03-01T02:13:46;23.25;;;14.38;;
48215;SDS011;34005;48.844;10.098;2023-03-01T02:16:16;22.75;;;14.82;;
48215;SDS011;34005;48.844;10.098;2023-03-01T02:18:44;22.58;;;14.82;;
48215;SDS011;34005;48.844;10.098;2023-03-01T02:21:17;22.67;;;15.18;;
48215;SDS011;34005;48.844;10.098;2023-03-01T02:23:58;23.17;;;14.75;;
48215;SDS011;34005;48.844;10.098;2023-03-01T02:26:32;24.88;;;15.35;;
48215;SDS011;34005;48.844;10.098;2023-03-01T02:29:06;25.65;;;15.93;;
48215;SDS011;34005;48.844;10.098;2023-03-01T02:31:34;24.25;;;15.60;;
48215;SDS011;34005;48.844;10.098;2023-03-01T02:34:12;26.70;;;15.88;;
48215;SDS011;34005;48.844;10.098;2023-03-01T02:36:43;24.63;;;15.52;;
48215;SDS011;34005;48.844;10.098;2023-03-01T02:39:14;27.30;;;15.65;;
48215;SDS011;34005;48.844;10.098;2023-03-01T02:41:45;25.00;;;15.20;;
48215;SDS011;34005;48.844;10.098;2023-03-01T02:44:16;23.92;;;14.77;;
48215;SDS011;34005;48.844;10.098;2023-03-01T02:46:44;24.70;;;14.50;;
48215;SDS011;34005;48.844;10.098;2023-03-01T02:49:22;23.13;;;15.38;;
48215;SDS011;34005;48.844;10.098;2023-03-01T02:52:05;25.05;;;15.40;;
48215;SDS011;34005;48.844;10.098;2023-03-01T02:54:47;25.90;;;16.13;;
48215;SDS011;34005;48.844;10.098;2023-03-01T02:57:19;26.33;;;15.48;;
48215;SDS011;34005;48.844;10.098;2023-03-01T02:59:50;27.10;;;16.77;;
48215;SDS011;34005;48.844;10.098;2023-03-01T03:02:20;25.67;;;16.38;;
48215;SDS011;34005;48.844;10.098;2023-03-01T03:05:06;26.60;;;14.85;;
48215;SDS011;34005;48.844;10.098;2023-03-01T03:07:36;26.02;;;16.17;;
48215;SDS011;34005;48.844;10.098;2023-03-01T03:10:06;26.48;;;15.70;;
48215;SDS011;34005;48.844;10.098;2023-03-01T03:12:37;27.27;;;15.75;;
48215;SDS011;34005;48.844;10.098;2023-03-01T03:15:07;27.05;;;15.63;;
48215;SDS011;34005;48.844;10.098;2023-03-01T03:17:39;26.30;;;16.52;;
48215;SDS011;34005;48.844;10.098;2023-03-01T03:20:10;20.77;;;14.63;;
48215;SDS011;34005;48.844;10.098;2023-03-01T03:22:45;28.48;;;16.40;;
48215;SDS011;34005;48.844;10.098;2023-03-01T03:25:13;24.77;;;15.88;;
48215;SDS011;34005;48.844;10.098;2023-03-01T03:27:42;24.67;;;15.02;;
48215;SDS011;34005;48.844;10.098;2023-03-01T03:30:13;24.65;;;15.20;;
48215;SDS011;34005;48.844;10.098;2023-03-01T03:32:42;23.88;;;15.55;;
48215;SDS011;34005;48.844;10.098;2023-03-01T03:35:18;23.33;;;14.23;;
48215;SDS011;34005;48.844;10.098;2023-03-01T03:37:46;24.45;;;15.40;;
48215;SDS011;34005;48.844;10.098;2023-03-01T03:40:30;25.42;;;15.48;;
48215;SDS011;34005;48.844;10.098;2023-03-01T03:43:00;26.05;;;16.17;;
48215;SDS011;34005;48.844;10.098;2023-03-01T03:45:29;25.98;;;15.23;;
48215;SDS011;34005;48.844;10.098;2023-03-01T03:47:59;22.83;;;14.20;;
48215;SDS011;34005;48.844;10.098;2023-03-01T03:50:27;23.92;;;15.23;;
48215;SDS011;34005;48.844;10.098;2023-03-01T03:52:55;24.90;;;16.08;;
48215;SDS011;34005;48.844;10.098;2023-03-01T03:55:22;24.65;;;14.98;;
48215;SDS011;34005;48.844;10.098;2023-03-01T03:57:54;26.00;;;15.68;;
48215;SDS011;34005;48.844;10.098;2023-03-01T04:00:28;24.70;;;16.10;;
48215;SDS011;34005;48.844;10.098;2023-03-01T04:02:56;24.08;;;15.80;;
48215;SDS011;34005;48.844;10.098;2023-03-01T04:05:24;22.70;;;14.80;;
48215;SDS011;34005;48.844;10.098;2023-03-01T04:07:52;25.38;;;16.42;;
48215;SDS011;34005;48.844;10.098;2023-03-01T04:10:27;25.42;;;15.52;;
48215;SDS011;34005;48.844;10.098;2023-03-01T04:12:56;23.27;;;15.13;;
48215;SDS011;34005;48.844;10.098;2023-03-01T04:15:24;24.73;;;15.95;;
48215;SDS011;34005;48.844;10.098;2023-03-01T04:17:54;22.35;;;14.85;;
48215;SDS011;34005;48.844;10.098;2023-03-01T04:20:23;30.23;;;15.95;;
48215;SDS011;34005;48.844;10.098;2023-03-01T04:22:53;24.58;;;15.70;;
48215;SDS011;34005;48.844;10.098;2023-03-01T04:25:24;25.55;;;15.30;;
48215;SDS011;34005;48.844;10.098;2023-03-01T04:27:52;23.83;;;15.50;;
48215;SDS011;34005;48.844;10.098;2023-03-01T04:30:20;24.42;;;15.70;;
48215;SDS011;34005;48.844;10.098;2023-03-01T04:32:51;27.90;;;16.83;;
48215;SDS011;34005;48.844;10.098;2023-03-01T04:35:20;28.65;;;16.27;;
48215;SDS011;34005;48.844;10.098;2023-03-01T04:37:48;29.20;;;16.58;;
48215;SDS011;34005;48.844;10.098;2023-03-01T04:40:17;26.25;;;17.25;;
48215;SDS011;34005;48.844;10.098;2023-03-01T04:42:44;25.27;;;16.33;;
48215;SDS011;34005;48.844;10.098;2023-03-01T04:45:13;26.00;;;16.60;;
48215;SDS011;34005;48.844;10.098;2023-03-01T04:47:41;23.80;;;15.85;;
48215;SDS011;34005;48.844;10.098;2023-03-01T04:50:11;25.90;;;16.05;;
48215;SDS011;34005;48.844;10.098;2023-03-01T04:52:41;27.52;;;16.42;;
48215;SDS011;34005;48.844;10.098;2023-03-01T04:55:10;27.15;;;15.73;;
48215;SDS011;34005;48.844;10.098;2023-03-01T04:57:38;22.55;;;15.15;;
48215;SDS011;34005;48.844;10.098;2023-03-01T05:00:07;25.05;;;15.90;;
48215;SDS011;34005;48.844;10.098;2023-03-01T05:02:47;27.70;;;15.88;;
48215;SDS011;34005;48.844;10.098;2023-03-01T05:05:26;22.08;;;15.02;;
48215;SDS011;34005;48.844;10.098;2023-03-01T05:07:57;23.73;;;15.20;;
48215;SDS011;34005;48.844;10.098;2023-03-01T05:10:26;24.50;;;15.65;;
48215;SDS011;34005;48.844;10.098;2023-03-01T05:12:56;23.35;;;14.25;;
48215;SDS011;34005;48.844;10.098;2023-03-01T05:15:24;25.70;;;16.48;;
48215;SDS011;34005;48.844;10.098;2023-03-01T05:17:54;27.48;;;15.15;;
48215;SDS011;34005;48.844;10.098;2023-03-01T05:20:25;27.08;;;16.55;;
48215;SDS011;34005;48.844;10.098;2023-03-01T05:22:54;24.88;;;15.90;;
48215;SDS011;34005;48.844;10.098;2023-03-01T05:25:24;26.00;;;15.68;;
48215;SDS011;34005;48.844;10.098;2023-03-01T05:27:52;27.02;;;16.63;;
48215;SDS011;34005;48.844;10.098;2023-03-01T05:30:20;28.35;;;16.83;;
48215;SDS011;34005;48.844;10.098;2023-03-01T05:32:49;26.40;;;16.35;;
48215;SDS011;34005;48.844;10.098;2023-03-01T05:35:23;31.23;;;17.58;;
48215;SDS011;34005;48.844;10.098;2023-03-01T05:37:51;26.65;;;17.25;;
48215;SDS011;34005;48.844;10.098;2023-03-01T05:40:19;27.75;;;16.63;;
48215;SDS011;34005;48.844;10.098;2023-03-01T05:42:50;25.88;;;16.30;;
48215;SDS011;34005;48.844;10.098;2023-03-01T05:45:20;27.33;;;15.77;;
48215;SDS011;34005;48.844;10.098;2023-03-01T05:47:48;29.77;;;17.85;;
48215;SDS011;34005;48.844;10.098;2023-03-01T05:50:17;30.15;;;16.27;;
48215;SDS011;34005;48.844;10.098;2023-03-01T05:52:47;26.10;;;15.38;;
48215;SDS011;34005;48.844;10.098;2023-03-01T05:55:16;25.33;;;16.15;;
48215;SDS011;34005;48.844;10.098;2023-03-01T05:57:44;27.95;;;16.05;;
48215;SDS011;34005;48.844;10.098;2023-03-01T06:00:14;27.10;;;16.58;;
48215;SDS011;34005;48.844;10.098;2023-03-01T06:02:42;28.85;;;16.92;;
48215;SDS011;34005;48.844;10.098;2023-03-01T06:05:11;26.17;;;15.95;;
48215;SDS011;34005;48.844;10.098;2023-03-01T06:07:40;31.60;;;17.05;;
48215;SDS011;34005;48.844;10.098;2023-03-01T06:10:08;28.35;;;16.90;;
48215;SDS011;34005;48.844;10.098;2023-03-01T06:12:38;27.98;;;16.55;;
48215;SDS011;34005;48.844;10.098;2023-03-01T06:15:07;29.60;;;16.92;;
48215;SDS011;34005;48.844;10.098;2023-03-01T06:17:40;32.20;;;17.95;;
48215;SDS011;34005;48.844;10.098;2023-03-01T06:22:39;24.38;;;14.65;;
48215;SDS011;34005;48.844;10.098;2023-03-01T06:25:06;30.00;;;18.10;;
48215;SDS011;34005;48.844;10.098;2023-03-01T06:27:35;28.92;;;17.65;;
48215;SDS011;34005;48.844;10.098;2023-03-01T06:30:03;29.13;;;17.92;;
48215;SDS011;34005;48.844;10.098;2023-03-01T06:32:32;27.38;;;15.93;;
48215;SDS011;34005;48.844;10.098;2023-03-01T06:35:01;26.73;;;16.48;;
48215;SDS011;34005;48.844;10.098;2023-03-01T06:37:30;29.73;;;18.55;;
48215;SDS011;34005;48.844;10.098;2023-03-01T06:39:58;27.00;;;16.80;;
48215;SDS011;34005;48.844;10.098;2023-03-01T06:42:25;29.95;;;16.90;;
48215;SDS011;34005;48.844;10.098;2023-03-01T06:44:53;27.67;;;17.05;;
48215;SDS011;34005;48.844;10.098;2023-03-01T06:47:20;31.15;;;17.02;;
48215;SDS011;34005;48.844;10.098;2023-03-01T06:49:48;33.25;;;18.05;;
48215;SDS011;34005;48.844;10.098;2023-03-01T06:52:17;29.30;;;17.70;;
48215;SDS011;34005;48.844;10.098;2023-03-01T06:54:44;29.80;;;17.33;;
48215;SDS011;34005;48.844;10.098;2023-03-01T06:57:12;27.73;;;17.23;;
48215;SDS011;34005;48.844;10.098;2023-03-01T06:59:39;30.48;;;16.20;;
48215;SDS011;34005;48.844;10.098;2023-03-01T07:02:09;31.33;;;16.63;;
48215;SDS011;34005;48.844;10.098;2023-03-01T07:04:37;26.05;;;16.33;;
48215;SDS011;34005;48.844;10.098;2023-03-01T07:07:05;30.55;;;17.23;;
48215;SDS011;34005;48.844;10.098;2023-03-01T07:09:34;29.17;;;17.20;;
48215;SDS011;34005;48.844;10.098;2023-03-01T07:12:02;31.13;;;17.60;;
48215;SDS011;34005;48.844;10.098;2023-03-01T07:14:30;26.90;;;17.08;;
48215;SDS011;34005;48.844;10.098;2023-03-01T07:16:58;28.75;;;16.88;;
48215;SDS011;34005;48.844;10.098;2023-03-01T07:19:25;26.27;;;16.27;;
48215;SDS011;34005;48.844;10.098;2023-03-01T07:21:53;27.73;;;16.45;;
48215;SDS011;34005;48.844;10.098;2023-03-01T07:24:21;25.55;;;15.80;;
48215;SDS011;34005;48.844;10.098;2023-03-01T07:26:51;27.23;;;17.35;;
48215;SDS011;34005;48.844;10.098;2023-03-01T07:29:19;32.40;;;18.15;;
48215;SDS011;34005;48.844;10.098;2023-03-01T07:31:47;30.20;;;17.23;;
48215;SDS011;34005;48.844;10.098;2023-03-01T07:34:14;26.15;;;17.58;;
48215;SDS011;34005;48.844;10.098;2023-03-01T07:36:42;29.17;;;17.08;;
48215;SDS011;34005;48.844;10.098;2023-03-01T07:39:11;26.63;;;17.27;;
48215;SDS011;34005;48.844;10.098;2023-03-01T07:41:39;25.02;;;17.25;;
48215;SDS011;34005;48.844;10.098;2023-03-01T07:44:08;28.25;;;17.25;;
48215;SDS011;34005;48.844;10.098;2023-03-01T07:46:35;27.05;;;17.08;;
48215;SDS011;34005;48.844;10.098;2023-03-01T07:49:03;27.88;;;16.80;;
48215;SDS011;34005;48.844;10.098;2023-03-01T07:51:31;25.95;;;15.63;;
48215;SDS011;34005;48.844;10.098;2023-03-01T07:53:59;24.13;;;15.88;;
48215;SDS011;34005;48.844;10.098;2023-03-01T07:56:27;26.58;;;17.35;;
48215;SDS011;34005;48.844;10.098;2023-03-01T07:58:55;26.27;;;16.65;;
48215;SDS011;34005;48.844;10.098;2023-03-01T08:01:24;29.45;;;15.60;;
48215;SDS011;34005;48.844;10.098;2023-03-01T08:03:52;25.73;;;17.25;;
48215;SDS011;34005;48.844;10.098;2023-03-01T08:06:19;24.65;;;16.10;;
48215;SDS011;34005;48.844;10.098;2023-03-01T08:08:47;25.65;;;17.58;;
48215;SDS011;34005;48.844;10.098;2023-03-01T08:11:15;26.60;;;15.48;;
48215;SDS011;34005;48.844;10.098;2023-03-01T08:13:43;24.23;;;16.23;;
48215;SDS011;34005;48.844;10.098;2023-03-01T08:16:25;20.85;;;15.73;;
48215;SDS011;34005;48.844;10.098;2023-03-01T08:18:54;21.17;;;15.75;;
48215;SDS011;34005;48.844;10.098;2023-03-01T08:21:22;24.30;;;16.63;;
48215;SDS011;34005;48.844;10.098;2023-03-01T08:23:51;22.23;;;16.08;;
48215;SDS011;34005;48.844;10.098;2023-03-01T08:26:19;25.35;;;17.10;;
48215;SDS011;34005;48.844;10.098;2023-03-01T08:28:48;22.35;;;15.93;;
48215;SDS011;34005;48.844;10.098;2023-03-01T08:31:18;21.95;;;16.35;;
48215;SDS011;34005;48.844;10.098;2023-03-01T08:33:49;20.55;;;15.70;;
48215;SDS011;34005;48.844;10.098;2023-03-01T08:36:21;19.45;;;15.43;;
48215;SDS011;34005;48.844;10.098;2023-03-01T08:38:49;21.02;;;16.15;;
48215;SDS011;34005;48.844;10.098;2023-03-01T08:41:17;24.45;;;16.02;;
48215;SDS011;34005;48.844;10.098;2023-03-01T08:43:45;20.17;;;15.95;;
48215;SDS011;34005;48.844;10.098;2023-03-01T08:46:14;20.25;;;15.75;;
48215;SDS011;34005;48.844;10.098;2023-03-01T08:48:42;20.75;;;14.32;;
48215;SDS011;34005;48.844;10.098;2023-03-01T08:51:12;18.98;;;14.85;;
48215;SDS011;34005;48.844;10.098;2023-03-01T08:53:45;20.88;;;15.25;;
48215;SDS011;34005;48.844;10.098;2023-03-01T08:56:13;23.77;;;15.55;;
48215;SDS011;34005;48.844;10.098;2023-03-01T08:58:43;19.25;;;15.43;;
48215;SDS011;34005;48.844;10.098;2023-03-01T09:01:11;19.92;;;14.77;;
48215;SDS011;34005;48.844;10.098;2023-03-01T09:03:41;18.80;;;14.27;;
48215;SDS011;34005;48.844;10.098;2023-03-01T09:06:10;18.98;;;14.50;;
48215;SDS011;34005;48.844;10.098;2023-03-01T09:08:40;22.05;;;15.18;;
48215;SDS011;34005;48.844;10.098;2023-03-01T09:11:10;17.98;;;14.60;;
48215;SDS011;34005;48.844;10.098;2023-03-01T09:13:39;19.75;;;14.43;;
48215;SDS011;34005;48.844;10.098;2023-03-01T09:16:10;20.15;;;14.73;;
48215;SDS011;34005;48.844;10.098;2023-03-01T09:18:38;18.70;;;14.95;;
48215;SDS011;34005;48.844;10.098;2023-03-01T09:21:07;18.02;;;14.68;;
48215;SDS011;34005;48.844;10.098;2023-03-01T09:23:38;17.98;;;13.68;;
48215;SDS011;34005;48.844;10.098;2023-03-01T09:26:07;20.58;;;15.65;;
48215;SDS011;34005;48.844;10.098;2023-03-01T09:28:36;19.13;;;14.27;;
48215;SDS011;34005;48.844;10.098;2023-03-01T09:31:04;22.20;;;15.73;;
48215;SDS011;34005;48.844;10.098;2023-03-01T09:33:32;21.08;;;15.43;;
48215;SDS011;34005;48.844;10.098;2023-03-01T09:36:02;19.30;;;15.27;;
48215;SDS011;34005;48.844;10.098;2023-03-01T09:38:31;18.48;;;14.68;;
48215;SDS011;34005;48.844;10.098;2023-03-01T09:41:00;20.20;;;14.88;;
48215;SDS011;34005;48.844;10.098;2023-03-01T09:43:31;18.35;;;14.70;;
48215;SDS011;34005;48.844;10.098;2023-03-01T09:46:13;19.73;;;15.10;;
48215;SDS011;34005;48.844;10.098;2023-03-01T09:48:44;20.85;;;15.63;;
48215;SDS011;34005;48.844;10.098;2023-03-01T09:51:17;20.35;;;14.82;;
48215;SDS011;34005;48.844;10.098;2023-03-01T09:53:46;19.35;;;14.80;;
48215;SDS011;34005;48.844;10.098;2023-03-01T09:56:16;22.10;;;16.25;;
48215;SDS011;34005;48.844;10.098;2023-03-01T10:01:54;21.95;;;15.18;;
48215;SDS011;34005;48.844;10.098;2023-03-01T10:04:28;20.83;;;15.68;;
48215;SDS011;34005;48.844;10.098;2023-03-01T10:07:05;19.80;;;14.85;;
48215;SDS011;34005;48.844;10.098;2023-03-01T10:09:44;28.35;;;17.95;;
48215;SDS011;34005;48.844;10.098;2023-03-01T10:12:15;22.45;;;15.77;;
48215;SDS011;34005;48.844;10.098;2023-03-01T10:14:48;19.98;;;15.38;;
48215;SDS011;34005;48.844;10.098;2023-03-01T10:17:24;20.10;;;14.98;;
48215;SDS011;34005;48.844;10.098;2023-03-01T10:19:58;20.10;;;15.02;;
48215;SDS011;34005;48.844;10.098;2023-03-01T10:22:41;18.90;;;14.65;;
48215;SDS011;34005;48.844;10.098;2023-03-01T10:25:08;19.00;;;14.82;;
48215;SDS011;34005;48.844;10.098;2023-03-01T10:30:17;20.65;;;14.60;;
48215;SDS011;34005;48.844;10.098;2023-03-01T10:32:48;21.45;;;14.95;;
48215;SDS011;34005;48.844;10.098;2023-03-01T10:35:18;21.35;;;15.05;;
48215;SDS011;34005;48.844;10.098;2023-03-01T10:37:57;20.50;;;15.07;;
48215;SDS011;34005;48.844;10.098;2023-03-01T10:40:29;17.60;;;13.23;;
48215;SDS011;34005;48.844;10.098;2023-03-01T10:42:58;18.08;;;13.75;;
48215;SDS011;34005;48.844;10.098;2023-03-01T10:45:32;17.70;;;13.63;;
48215;SDS011;34005;48.844;10.098;2023-03-01T10:48:03;20.05;;;15.00;;
48215;SDS011;34005;48.844;10.098;2023-03-01T10:50:32;18.05;;;13.73;;
48215;SDS011;34005;48.844;10.098;2023-03-01T10:53:00;18.50;;;13.73;;
48215;SDS011;34005;48.844;10.098;2023-03-01T10:55:31;16.83;;;12.77;;
48215;SDS011;34005;48.844;10.098;2023-03-01T10:58:17;17.58;;;13.35;;
48215;SDS011;34005;48.844;10.098;2023-03-01T11:00:47;17.85;;;12.40;;
48215;SDS011;34005;48.844;10.098;2023-03-01T11:03:18;19.48;;;12.73;;
48215;SDS011;34005;48.844;10.098;2023-03-01T11:05:54;14.80;;;11.80;;
48215;SDS011;34005;48.844;10.098;2023-03-01T11:08:30;14.10;;;12.18;;
48215;SDS011;34005;48.844;10.098;2023-03-01T11:11:04;14.07;;;11.18;;
48215;SDS011;34005;48.844;10.098;2023-03-01T11:13:35;16.83;;;12.85;;
48215;SDS011;34005;48.844;10.098;2023-03-01T11:16:05;17.67;;;12.52;;
48215;SDS011;34005;48.844;10.098;2023-03-01T11:21:13;14.80;;;11.30;;
48215;SDS011;34005;48.844;10.098;2023-03-01T11:23:42;16.58;;;11.73;;
48215;SDS011;34005;48.844;10.098;2023-03-01T11:26:13;16.00;;;11.98;;
48215;SDS011;34005;48.844;10.098;2023-03-01T11:28:44;14.55;;;11.85;;
48215;SDS011;34005;48.844;10.098;2023-03-01T11:31:17;16.52;;;11.82;;
48215;SDS011;34005;48.844;10.098;2023-03-01T11:33:48;18.13;;;12.38;;
48215;SDS011;34005;48.844;10.098;2023-03-01T11:36:23;18.15;;;11.93;;
48215;SDS011;34005;48.844;10.098;2023-03-01T11:39:00;12.80;;;10.55;;
48215;SDS011;34005;48.844;10.098;2023-03-01T11:41:33;22.40;;;13.25;;
48215;SDS011;34005;48.844;10.098;2023-03-01T11:44:05;15.80;;;12.15;;
48215;SDS011;34005;48.844;10.098;2023-03-01T11:46:51;16.98;;;13.30;;
48215;SDS011;34005;48.844;10.098;2023-03-01T11:49:49;16.27;;;12.43;;
48215;SDS011;34005;48.844;10.098;2023-03-01T11:52:27;13.35;;;10.90;;
48215;SDS011;34005;48.844;10.098;2023-03-01T11:55:12;23.27;;;16.60;;
48215;SDS011;34005;48.844;10.098;2023-03-01T11:57:53;32.33;;;14.43;;
48215;SDS011;34005;48.844;10.098;2023-03-01T12:00:38;15.38;;;11.88;;
48215;SDS011;34005;48.844;10.098;2023-03-01T12:06:01;18.00;;;13.07;;
48215;SDS011;34005;48.844;10.098;2023-03-01T12:08:41;18.35;;;13.55;;
48215;SDS011;34005;48.844;10.098;2023-03-01T12:11:17;14.85;;;13.00;;
48215;SDS011;34005;48.844;10.098;2023-03-01T12:13:58;18.27;;;12.82;;
48215;SDS011;34005;48.844;10.098;2023-03-01T12:16:51;17.10;;;13.07;;
48215;SDS011;34005;48.844;10.098;2023-03-01T12:19:42;18.88;;;14.02;;
48215;SDS011;34005;48.844;10.098;2023-03-01T12:22:29;21.58;;;15.25;;
48215;SDS011;34005;48.844;10.098;2023-03-01T12:25:04;18.75;;;14.35;;
48215;SDS011;34005;48.844;10.098;2023-03-01T12:27:50;22.85;;;15.98;;
48215;SDS011;34005;48.844;10.098;2023-03-01T12:30:39;19.23;;;15.48;;
48215;SDS011;34005;48.844;10.098;2023-03-01T12:33:21;21.02;;;15.40;;
48215;SDS011;34005;48.844;10.098;2023-03-01T12:36:02;23.17;;;16.92;;
48215;SDS011;34005;48.844;10.098;2023-03-01T12:38:48;17.70;;;14.43;;
48215;SDS011;34005;48.844;10.098;2023-03-01T12:41:27;17.00;;;14.15;;
48215;SDS011;34005;48.844;10.098;2023-03-01T12:44:09;20.45;;;15.50;;
48215;SDS011;34005;48.844;10.098;2023-03-01T12:46:47;21.13;;;16.75;;
48215;SDS011;34005;48.844;10.098;2023-03-01T12:49:26;21.45;;;13.95;;
48215;SDS011;34005;48.844;10.098;2023-03-01T12:51:59;19.15;;;13.77;;
48215;SDS011;34005;48.844;10.098;2023-03-01T12:54:35;19.88;;;14.55;;
48215;SDS011;34005;48.844;10.098;2023-03-01T12:57:06;19.48;;;14.35;;
48215;SDS011;34005;48.844;10.098;2023-03-01T12:59:42;21.63;;;14.57;;
48215;SDS011;34005;48.844;10.098;2023-03-01T13:02:18;18.15;;;13.98;;
48215;SDS011;34005;48.844;10.098;2023-03-01T13:04:57;20.52;;;14.55;;
48215;SDS011;34005;48.844;10.098;2023-03-01T13:07:35;17.38;;;14.02;;
48215;SDS011;34005;48.844;10.098;2023-03-01T13:10:16;22.30;;;13.68;;
48215;SDS011;34005;48.844;10.098;2023-03-01T13:12:51;25.73;;;15.43;;
48215;SDS011;34005;48.844;10.098;2023-03-01T13:15:28;17.80;;;14.60;;
48215;SDS011;34005;48.844;10.098;2023-03-01T13:17:58;21.33;;;14.68;;
48215;SDS011;34005;48.844;10.098;2023-03-01T13:20:31;18.23;;;13.73;;
48215;SDS011;34005;48.844;10.098;2023-03-01T13:23:09;23.55;;;14.43;;
48215;SDS011;34005;48.844;10.098;2023-03-01T13:26:02;17.02;;;12.50;;
48215;SDS011;34005;48.844;10.098;2023-03-01T13:28:39;17.50;;;12.65;;
48215;SDS011;34005;48.844;10.098;2023-03-01T13:37:29;17.63;;;13.00;;
48215;SDS011;34005;48.844;10.098;2023-03-01T13:40:04;20.90;;;13.43;;
48215;SDS011;34005;48.844;10.098;2023-03-01T13:42:53;18.10;;;13.73;;
48215;SDS011;34005;48.844;10.098;2023-03-01T13:45:35;18.10;;;12.63;;
48215;SDS011;34005;48.844;10.098;2023-03-01T13:48:08;20.80;;;13.90;;
48215;SDS011;34005;48.844;10.098;2023-03-01T13:50:38;16.42;;;12.82;;
48215;SDS011;34005;48.844;10.098;2023-03-01T13:53:16;19.10;;;12.95;;
48215;SDS011;34005;48.844;10.098;2023-03-01T13:55:46;17.38;;;11.77;;
48215;SDS011;34005;48.844;10.098;2023-03-01T13:58:18;21.40;;;13.10;;
48215;SDS011;34005;48.844;10.098;2023-03-01T14:03:23;17.75;;;13.18;;
48215;SDS011;34005;48.844;10.098;2023-03-01T14:05:58;18.40;;;12.80;;
48215;SDS011;34005;48.844;10.098;2023-03-01T14:08:42;18.92;;;13.38;;
48215;SDS011;34005;48.844;10.098;2023-03-01T14:20:09;19.67;;;13.95;;
48215;SDS011;34005;48.844;10.098;2023-03-01T14:22:42;16.83;;;12.18;;
48215;SDS011;34005;48.844;10.098;2023-03-01T14:25:20;18.05;;;12.45;;
48215;SDS011;34005;48.844;10.098;2023-03-01T14:27:58;17.40;;;12.77;;
48215;SDS011;34005;48.844;10.098;2023-03-01T14:30:32;18.88;;;12.60;;
48215;SDS011;34005;48.844;10.098;2023-03-01T14:33:05;18.15;;;11.93;;
48215;SDS011;34005;48.844;10.098;2023-03-01T14:35:34;21.23;;;13.32;;
48215;SDS011;34005;48.844;10.098;2023-03-01T14:38:03;18.77;;;13.23;;
48215;SDS011;34005;48.844;10.098;2023-03-01T14:40:32;17.45;;;12.32;;
48215;SDS011;34005;48.844;10.098;2023-03-01T14:43:04;18.02;;;12.57;;
48215;SDS011;34005;48.844;10.098;2023-03-01T14:45:36;17.70;;;13.43;;
48215;SDS011;34005;48.844;10.098;2023-03-01T14:48:04;17.92;;;13.48;;
48215;SDS011;34005;48.844;10.098;2023-03-01T14:50:34;18.75;;;13.35;;
48215;SDS011;34005;48.844;10.098;2023-03-01T14:53:07;19.05;;;13.55;;
48215;SDS011;34005;48.844;10.098;2023-03-01T14:55:46;18.33;;;12.57;;
48215;SDS011;34005;48.844;10.098;2023-03-01T14:58:18;20.02;;;13.07;;
48215;SDS011;34005;48.844;10.098;2023-03-01T15:00:48;18.33;;;13.18;;
48215;SDS011;34005;48.844;10.098;2023-03-01T15:03:20;25.35;;;13.45;;
48215;SDS011;34005;48.844;10.098;2023-03-01T15:05:53;17.90;;;12.50;;